Time;durP1;ratioP1;P1;durP2;ratioP2;P2;SDS_P1;SDS_P2;PMS_P1;PMS_P2;Temp;Humidity;BMP_temperature;BMP_pressure;BME280_temperature;BME280_humidity;BME280_pressure;Samples;Min_cycle;Max_cycle;Signal;HPM_P1;HPM_P2
2023/01/28 00:02:07;;;;;;;10.07;6.97;;;2.20;99.90;;;;;;5043440;28;20056;-71
2023/01/28 00:04:34;;;;;;;9.45;6.60;;;2.20;99.90;;;;;;5044372;28;20417;-71
2023/01/28 00:06:59;;;;;;;10.50;6.90;;;2.20;99.90;;;;;;5045797;28;20048;-71
2023/01/28 00:09:25;;;;;;;9.32;6.45;;;2.10;99.90;;;;;;5046508;28;20055;-71
2023/01/28 00:11:51;;;;;;;10.80;6.97;;;2.20;99.90;;;;;;5029101;28;20395;-71
2023/01/28 00:14:17;;;;;;;10.65;7.07;;;2.20;99.90;;;;;;5013197;28;20056;-71
2023/01/28 00:16:43;;;;;;;10.55;7.20;;;2.10;99.90;;;;;;5022105;28;20107;-71
2023/01/28 00:19:08;;;;;;;10.02;6.82;;;2.20;99.90;;;;;;5015768;28;20309;-71
2023/01/28 00:21:34;;;;;;;9.98;7.22;;;2.20;99.90;;;;;;5043312;28;20047;-71
2023/01/28 00:24:00;;;;;;;11.07;6.65;;;2.20;99.90;;;;;;5052421;28;20513;-71
2023/01/28 00:26:26;;;;;;;10.57;6.82;;;2.10;99.90;;;;;;5042067;28;20044;-71
2023/01/28 00:28:52;;;;;;;9.73;6.30;;;2.10;99.90;;;;;;5044688;28;20105;-71
2023/01/28 00:31:20;;;;;;;10.02;6.38;;;2.10;99.90;;;;;;5064114;28;20532;-71
2023/01/28 00:33:48;;;;;;;10.32;6.97;;;2.20;99.90;;;;;;5045522;28;20032;-71
2023/01/28 00:36:15;;;;;;;9.95;6.15;;;2.10;99.90;;;;;;5031963;28;20159;-71
2023/01/28 00:38:42;;;;;;;12.77;8.00;;;2.20;99.90;;;;;;5041765;28;20055;-71
2023/01/28 00:41:10;;;;;;;9.82;6.47;;;2.20;99.90;;;;;;5043357;28;20044;-71
2023/01/28 00:43:37;;;;;;;9.27;6.22;;;2.20;99.90;;;;;;5022981;28;20450;-71
2023/01/28 00:46:06;;;;;;;9.90;6.18;;;2.20;99.90;;;;;;5028343;28;20036;-71
2023/01/28 00:48:32;;;;;;;9.98;6.90;;;2.20;99.90;;;;;;5064002;28;20041;-71
2023/01/28 00:50:58;;;;;;;9.07;6.28;;;2.10;99.90;;;;;;5053353;28;20490;-71
2023/01/28 00:53:24;;;;;;;9.82;6.45;;;2.20;99.90;;;;;;5033337;28;20032;-71
2023/01/28 00:55:50;;;;;;;9.88;6.43;;;2.10;99.90;;;;;;5045719;28;20194;-72
2023/01/28 00:58:15;;;;;;;8.57;6.00;;;2.20;99.90;;;;;;5060128;28;20074;-71
2023/01/28 01:00:41;;;;;;;9.13;6.43;;;2.10;99.90;;;;;;5049713;28;20071;-71
2023/01/28 01:03:07;;;;;;;10.10;6.35;;;2.20;99.90;;;;;;5028790;28;20133;-71
2023/01/28 01:05:33;;;;;;;10.50;6.60;;;2.10;99.90;;;;;;5015843;28;20041;-71
2023/01/28 01:07:59;;;;;;;10.05;6.60;;;2.20;99.90;;;;;;5012090;28;20050;-70
2023/01/28 01:10:25;;;;;;;8.10;5.35;;;2.20;99.90;;;;;;5059196;28;20041;-71
2023/01/28 01:12:51;;;;;;;8.90;6.20;;;2.10;99.90;;;;;;5060103;28;20105;-70
2023/01/28 01:15:18;;;;;;;7.95;5.45;;;2.10;99.90;;;;;;5037172;28;20067;-71
2023/01/28 01:17:47;;;;;;;9.23;5.38;;;2.20;99.90;;;;;;5026906;28;20039;-71
2023/01/28 01:20:21;;;;;;;9.05;5.88;;;2.10;99.90;;;;;;5019417;28;20068;-71
2023/01/28 01:22:47;;;;;;;9.70;5.90;;;2.10;99.90;;;;;;5012509;28;20170;-71
2023/01/28 01:25:15;;;;;;;9.07;5.78;;;2.10;99.90;;;;;;5024238;28;20554;-71
2023/01/28 01:27:41;;;;;;;10.43;6.15;;;2.10;99.90;;;;;;5021708;28;20417;-71
2023/01/28 01:30:08;;;;;;;8.50;5.78;;;2.10;99.90;;;;;;5019325;28;20047;-71
2023/01/28 01:32:34;;;;;;;8.50;5.70;;;2.10;99.90;;;;;;5042015;28;20826;-71
2023/01/28 01:35:01;;;;;;;8.57;5.63;;;2.10;99.90;;;;;;5051515;28;20045;-71
2023/01/28 01:37:27;;;;;;;9.65;5.55;;;2.10;99.90;;;;;;5029690;28;20041;-71
2023/01/28 01:39:53;;;;;;;8.57;5.40;;;2.10;99.90;;;;;;5042701;28;20056;-71
2023/01/28 01:42:19;;;;;;;8.27;5.40;;;2.10;99.90;;;;;;5040278;28;20041;-71
2023/01/28 01:45:03;;;;;;;8.05;5.38;;;2.10;99.90;;;;;;5038996;28;20037;-71
2023/01/28 01:47:38;;;;;;;10.57;5.43;;;2.10;99.90;;;;;;5061532;28;20045;-71
2023/01/28 01:50:14;;;;;;;11.93;5.72;;;2.10;99.90;;;;;;5044916;28;20048;-71
2023/01/28 01:52:41;;;;;;;8.18;5.38;;;2.10;99.90;;;;;;5040739;28;20144;-71
2023/01/28 01:55:16;;;;;;;8.90;5.05;;;2.10;99.90;;;;;;5018858;28;20103;-71
2023/01/28 01:57:44;;;;;;;9.57;5.97;;;2.10;99.90;;;;;;5020717;28;20048;-71
2023/01/28 02:00:10;;;;;;;7.40;4.85;;;2.10;99.90;;;;;;5053622;28;21023;-71
2023/01/28 02:02:42;;;;;;;8.65;5.93;;;2.10;99.90;;;;;;5030425;28;20041;-71
2023/01/28 02:05:10;;;;;;;8.38;5.60;;;2.10;99.90;;;;;;5030319;28;20036;-71
2023/01/28 02:07:36;;;;;;;8.27;5.38;;;2.20;99.90;;;;;;5029307;28;20042;-71
2023/01/28 02:10:04;;;;;;;7.43;5.13;;;2.10;99.90;;;;;;5024670;28;20045;-71
2023/01/28 02:12:46;;;;;;;8.77;5.40;;;2.10;99.90;;;;;;5029339;28;20056;-71
2023/01/28 02:15:19;;;;;;;8.77;5.50;;;2.10;99.90;;;;;;5025067;28;20068;-71
2023/01/28 02:17:46;;;;;;;10.68;5.57;;;2.10;99.90;;;;;;5053643;28;20051;-71
2023/01/28 02:20:16;;;;;;;7.70;5.18;;;2.10;99.90;;;;;;5030641;28;20203;-71
2023/01/28 02:22:45;;;;;;;8.13;5.33;;;2.10;99.90;;;;;;5023993;28;20048;-71
2023/01/28 02:25:26;;;;;;;9.18;5.20;;;2.10;99.90;;;;;;5042192;28;20040;-71
2023/01/28 02:28:06;;;;;;;9.30;4.97;;;2.10;99.90;;;;;;5060283;28;20029;-71
2023/01/28 02:30:37;;;;;;;8.13;4.75;;;2.10;99.90;;;;;;5034030;28;20385;-71
2023/01/28 02:33:17;;;;;;;8.10;4.68;;;2.10;99.90;;;;;;5033620;28;20084;-71
2023/01/28 02:35:53;;;;;;;7.15;4.90;;;2.10;99.90;;;;;;5019055;28;20391;-71
2023/01/28 02:38:28;;;;;;;8.90;5.18;;;2.10;99.90;;;;;;5038858;28;20087;-71
2023/01/28 02:41:05;;;;;;;7.28;4.30;;;2.10;99.90;;;;;;5040622;28;20323;-71
2023/01/28 02:43:31;;;;;;;7.53;4.88;;;2.50;99.90;;;;;;5039480;28;20059;-71
2023/01/28 02:48:42;;;;;;;8.13;4.82;;;2.10;99.90;;;;;;5041066;28;20051;-71
2023/01/28 02:51:29;;;;;;;7.30;4.32;;;2.00;99.90;;;;;;5048539;28;20401;-71
2023/01/28 02:54:20;;;;;;;8.35;4.70;;;2.10;99.90;;;;;;5019557;28;20053;-71
2023/01/28 02:57:04;;;;;;;7.68;4.60;;;2.10;99.90;;;;;;5054468;28;20045;-71
2023/01/28 02:59:48;;;;;;;9.13;4.50;;;2.00;99.90;;;;;;5016237;28;20808;-71
2023/01/28 03:02:20;;;;;;;8.20;4.80;;;2.00;99.90;;;;;;5030701;28;20139;-71
2023/01/28 03:04:59;;;;;;;8.38;4.88;;;2.00;99.90;;;;;;5020614;28;20492;-71
2023/01/28 03:07:28;;;;;;;7.55;4.28;;;2.00;99.90;;;;;;5051697;28;20080;-71
2023/01/28 03:09:57;;;;;;;7.75;4.43;;;2.00;99.90;;;;;;5030732;28;20051;-71
2023/01/28 03:38:16;;;;;;;6.93;4.53;;;2.00;99.90;;;;;;5045371;28;20049;-71
2023/01/28 03:41:01;;;;;;;7.93;5.00;;;2.00;99.90;;;;;;5047807;28;20052;-71
2023/01/28 03:43:29;;;;;;;6.97;4.32;;;2.00;99.90;;;;;;5038298;28;20639;-71
2023/01/28 03:45:55;;;;;;;7.75;4.70;;;2.00;99.90;;;;;;5062481;28;20040;-71
2023/01/28 03:48:23;;;;;;;9.75;4.60;;;2.00;99.90;;;;;;5061509;28;20072;-71
2023/01/28 03:50:50;;;;;;;7.60;4.80;;;2.00;99.90;;;;;;5028620;28;20371;-71
2023/01/28 03:53:16;;;;;;;8.60;4.43;;;1.90;99.90;;;;;;5027445;28;20102;-71
2023/01/28 03:55:43;;;;;;;10.55;5.28;;;2.00;99.90;;;;;;5034556;28;20076;-71
2023/01/28 03:58:10;;;;;;;8.63;5.53;;;2.00;99.90;;;;;;5029308;28;20040;-71
2023/01/28 04:00:40;;;;;;;8.77;5.88;;;2.00;99.90;;;;;;5047660;28;20043;-71
2023/01/28 04:03:17;;;;;;;8.18;5.47;;;2.00;99.90;;;;;;5027842;28;20131;-71
2023/01/28 04:05:59;;;;;;;9.73;6.43;;;2.20;99.90;;;;;;5048510;28;20087;-71
2023/01/28 04:08:25;;;;;;;10.15;6.60;;;2.00;99.90;;;;;;5046239;28;20045;-71
2023/01/28 04:10:51;;;;;;;9.10;5.78;;;2.00;99.90;;;;;;5053245;28;20067;-71
2023/01/28 04:13:17;;;;;;;11.65;6.47;;;2.20;99.90;;;;;;5021826;28;20409;-71
2023/01/28 04:15:44;;;;;;;9.20;6.10;;;2.00;99.90;;;;;;5063963;28;20051;-71
2023/01/28 04:18:10;;;;;;;10.23;6.50;;;2.00;99.90;;;;;;5030701;28;20053;-71
2023/01/28 04:20:36;;;;;;;9.25;6.15;;;1.90;99.90;;;;;;5021886;28;20787;-71
2023/01/28 04:23:03;;;;;;;10.48;6.65;;;2.00;99.90;;;;;;5040290;28;20078;-71
2023/01/28 04:25:30;;;;;;;11.30;7.05;;;2.00;99.90;;;;;;5041019;28;20056;-71
2023/01/28 04:27:56;;;;;;;10.55;6.45;;;2.00;99.90;;;;;;5042204;28;20068;-71
2023/01/28 04:30:22;;;;;;;10.35;6.93;;;2.00;99.90;;;;;;5048552;28;20033;-71
2023/01/28 04:32:51;;;;;;;9.70;6.70;;;2.00;99.90;;;;;;5064038;28;20052;-71
2023/01/28 04:35:17;;;;;;;9.73;6.70;;;1.90;99.90;;;;;;5029006;28;20134;-71
2023/01/28 04:37:44;;;;;;;10.63;6.63;;;1.90;99.90;;;;;;5064306;28;20048;-71
2023/01/28 04:40:11;;;;;;;10.93;7.22;;;1.90;99.90;;;;;;5036081;28;20127;-71
2023/01/28 04:42:37;;;;;;;12.27;6.78;;;1.90;99.90;;;;;;5055775;28;20043;-71
2023/01/28 04:45:03;;;;;;;11.25;7.03;;;1.90;99.90;;;;;;5044770;28;20048;-71
2023/01/28 04:47:28;;;;;;;11.43;6.78;;;1.90;99.90;;;;;;5029773;28;20052;-71
2023/01/28 04:49:54;;;;;;;10.38;7.10;;;1.90;99.90;;;;;;5045436;28;20169;-72
2023/01/28 04:52:20;;;;;;;10.93;6.95;;;1.90;99.90;;;;;;5053629;28;20059;-71
2023/01/28 04:54:46;;;;;;;11.27;6.80;;;1.90;99.90;;;;;;5039988;28;20044;-71
2023/01/28 04:57:11;;;;;;;10.18;6.53;;;2.20;99.90;;;;;;5045144;28;20405;-71
2023/01/28 04:59:37;;;;;;;11.10;6.85;;;2.80;99.90;;;;;;5045187;28;20055;-71
2023/01/28 05:02:03;;;;;;;12.40;6.80;;;1.80;99.90;;;;;;5045431;28;20044;-71
2023/01/28 05:04:29;;;;;;;11.55;6.97;;;1.90;99.90;;;;;;5062293;28;20055;-71
2023/01/28 05:06:55;;;;;;;10.85;6.80;;;1.90;99.90;;;;;;5056520;28;20044;-71
2023/01/28 05:09:20;;;;;;;13.23;7.22;;;1.90;99.90;;;;;;5056850;28;20135;-71
2023/01/28 05:11:46;;;;;;;10.75;6.70;;;1.90;99.90;;;;;;5041131;28;20537;-71
2023/01/28 05:14:12;;;;;;;9.88;6.63;;;1.90;99.90;;;;;;5035377;28;20710;-71
2023/01/28 05:16:37;;;;;;;10.95;6.82;;;2.10;99.90;;;;;;5042953;28;20041;-71
2023/01/28 05:19:06;;;;;;;10.60;6.70;;;2.20;99.90;;;;;;5025465;28;20546;-71
2023/01/28 05:21:32;;;;;;;11.93;7.03;;;1.90;99.90;;;;;;5043011;28;20502;-71
2023/01/28 05:23:58;;;;;;;9.68;6.47;;;1.80;99.90;;;;;;5028022;28;20122;-71
2023/01/28 05:26:23;;;;;;;11.77;6.63;;;1.90;99.90;;;;;;5045923;28;20036;-71
2023/01/28 05:28:50;;;;;;;11.27;6.82;;;1.90;99.90;;;;;;5045378;28;20080;-71
2023/01/28 05:31:15;;;;;;;9.80;6.32;;;1.90;99.90;;;;;;5043059;28;20049;-71
2023/01/28 05:33:41;;;;;;;11.55;6.95;;;1.80;99.90;;;;;;5064814;28;20056;-72
2023/01/28 05:36:07;;;;;;;11.55;6.88;;;1.80;99.90;;;;;;5045312;28;20048;-71
2023/01/28 05:38:33;;;;;;;10.23;6.68;;;1.80;99.90;;;;;;5062129;28;20044;-71
2023/01/28 05:40:58;;;;;;;10.43;6.82;;;1.80;99.90;;;;;;5029452;28;20083;-71
2023/01/28 05:43:24;;;;;;;10.40;6.68;;;1.80;99.90;;;;;;5043142;28;20045;-71
2023/01/28 05:45:49;;;;;;;13.10;7.10;;;1.80;99.90;;;;;;5027694;28;20398;-71
2023/01/28 05:48:15;;;;;;;11.38;6.82;;;1.80;99.90;;;;;;5014078;28;20425;-71
2023/01/28 05:50:41;;;;;;;10.25;6.50;;;1.80;99.90;;;;;;5038017;28;20036;-71
2023/01/28 05:53:07;;;;;;;9.95;7.15;;;1.80;99.90;;;;;;5036565;28;20044;-71
2023/01/28 05:55:33;;;;;;;9.95;6.32;;;1.80;99.90;;;;;;5011686;28;20107;-71
2023/01/28 05:57:58;;;;;;;9.90;6.18;;;1.80;99.90;;;;;;5043069;28;20224;-71
2023/01/28 06:00:24;;;;;;;8.93;5.95;;;1.80;99.90;;;;;;5029385;28;20057;-71
2023/01/28 06:02:51;;;;;;;9.63;6.25;;;1.80;99.90;;;;;;5030892;28;20029;-70
2023/01/28 06:05:17;;;;;;;9.88;6.40;;;1.80;99.90;;;;;;5021993;28;20045;-71
2023/01/28 06:07:46;;;;;;;8.95;5.72;;;1.80;99.90;;;;;;5030455;28;20114;-71
2023/01/28 06:10:13;;;;;;;9.18;6.10;;;1.80;99.90;;;;;;5027593;28;20119;-71
2023/01/28 06:12:39;;;;;;;9.77;6.20;;;1.80;99.90;;;;;;5022322;28;20049;-71
2023/01/28 06:15:05;;;;;;;9.55;5.95;;;1.80;99.90;;;;;;5024534;28;20131;-70
2023/01/28 06:17:31;;;;;;;9.35;5.80;;;1.80;99.90;;;;;;5033781;28;20038;-70
2023/01/28 06:19:57;;;;;;;10.25;5.80;;;1.90;99.90;;;;;;5032646;28;20040;-71
2023/01/28 06:22:23;;;;;;;9.90;6.10;;;1.80;99.90;;;;;;5030708;28;20044;-71
2023/01/28 06:24:48;;;;;;;9.70;5.68;;;1.80;99.90;;;;;;5027081;28;20036;-71
2023/01/28 06:27:14;;;;;;;8.77;5.50;;;1.80;99.90;;;;;;5021977;28;20045;-71
2023/01/28 06:29:40;;;;;;;9.63;5.93;;;2.00;99.90;;;;;;5041004;28;20041;-70
2023/01/28 06:32:05;;;;;;;9.48;6.07;;;1.80;99.90;;;;;;5038615;28;20037;-71
2023/01/28 06:34:31;;;;;;;8.85;5.03;;;1.80;99.90;;;;;;5023417;28;20037;-71
2023/01/28 06:36:57;;;;;;;9.07;5.70;;;1.80;99.90;;;;;;5025496;28;20455;-71
2023/01/28 06:39:23;;;;;;;9.02;5.85;;;2.20;99.90;;;;;;5042215;28;20045;-71
2023/01/28 06:41:49;;;;;;;9.85;5.65;;;1.80;99.90;;;;;;5013493;28;20152;-71
2023/01/28 06:44:15;;;;;;;8.40;5.72;;;1.90;99.90;;;;;;5021162;28;20731;-71
2023/01/28 06:46:41;;;;;;;9.88;5.88;;;2.10;99.90;;;;;;5030933;28;20044;-71
2023/01/28 06:49:07;;;;;;;9.27;6.00;;;1.80;99.90;;;;;;5037179;28;20049;-71
2023/01/28 06:51:33;;;;;;;10.02;6.18;;;1.80;99.90;;;;;;5026294;28;21717;-71
2023/01/28 06:53:58;;;;;;;8.88;5.63;;;1.80;99.90;;;;;;5035543;28;20127;-71
2023/01/28 06:56:24;;;;;;;8.82;5.90;;;1.70;99.90;;;;;;5027287;28;20052;-71
2023/01/28 06:58:50;;;;;;;8.40;5.32;;;1.70;99.90;;;;;;5040626;28;20134;-71
2023/01/28 07:01:16;;;;;;;9.55;6.03;;;1.70;99.90;;;;;;5041942;28;20046;-71
2023/01/28 07:03:42;;;;;;;9.23;5.90;;;1.70;99.90;;;;;;5013670;28;20042;-71
2023/01/28 07:06:08;;;;;;;11.30;6.60;;;1.70;99.90;;;;;;5025317;28;20118;-71
2023/01/28 07:08:38;;;;;;;9.48;6.13;;;1.70;99.90;;;;;;5042315;28;20490;-71
2023/01/28 07:11:04;;;;;;;8.38;5.35;;;1.70;99.90;;;;;;5035967;28;20077;-70
2023/01/28 07:13:30;;;;;;;8.25;5.38;;;1.80;99.90;;;;;;5020825;28;20494;-71
2023/01/28 07:15:56;;;;;;;8.73;5.57;;;1.70;99.90;;;;;;5037946;28;20080;-71
2023/01/28 07:18:22;;;;;;;8.43;5.72;;;1.70;99.90;;;;;;5035038;28;20041;-71
2023/01/28 07:20:47;;;;;;;9.18;5.85;;;1.70;99.90;;;;;;5032934;28;20041;-71
2023/01/28 07:23:13;;;;;;;9.70;5.97;;;1.70;99.90;;;;;;5018954;28;20045;-71
2023/01/28 07:25:39;;;;;;;10.95;6.25;;;1.70;99.90;;;;;;5029691;28;20625;-71
2023/01/28 07:28:05;;;;;;;10.48;6.45;;;1.60;99.90;;;;;;5016026;28;20059;-70
2023/01/28 07:30:31;;;;;;;10.65;6.22;;;1.70;99.90;;;;;;5036674;28;20119;-71
2023/01/28 07:32:58;;;;;;;10.30;5.85;;;1.60;99.90;;;;;;5035647;28;20183;-71
2023/01/28 07:35:24;;;;;;;11.95;6.45;;;1.60;99.90;;;;;;5037868;28;20138;-71
2023/01/28 07:37:52;;;;;;;11.35;6.32;;;1.60;99.90;;;;;;5017671;28;20131;-71
2023/01/28 07:40:18;;;;;;;11.27;6.13;;;1.50;99.90;;;;;;5036369;28;20231;-71
2023/01/28 07:42:44;;;;;;;13.05;6.18;;;1.50;99.90;;;;;;5032518;28;20042;-71
2023/01/28 07:45:10;;;;;;;11.02;5.80;;;1.40;99.90;;;;;;5033154;28;20041;-71
2023/01/28 07:47:35;;;;;;;11.50;7.10;;;1.40;99.90;;;;;;5038156;28;20074;-71
2023/01/28 07:50:01;;;;;;;9.93;6.25;;;1.40;99.90;;;;;;5035707;28;20148;-71
2023/01/28 07:52:27;;;;;;;10.07;6.32;;;1.40;99.90;;;;;;5015417;28;20214;-71
2023/01/28 07:54:53;;;;;;;10.18;6.20;;;1.60;99.90;;;;;;5019855;28;20117;-71
2023/01/28 07:57:22;;;;;;;10.48;5.90;;;1.30;99.90;;;;;;5035989;28;20061;-71
2023/01/28 07:59:50;;;;;;;8.85;5.80;;;1.30;99.90;;;;;;5013740;28;20061;-71
2023/01/28 08:02:17;;;;;;;10.75;6.45;;;1.30;99.90;;;;;;5035374;28;20098;-71
2023/01/28 08:04:43;;;;;;;10.52;6.22;;;1.30;99.90;;;;;;5033176;28;20034;-71
2023/01/28 08:07:08;;;;;;;10.32;6.85;;;1.30;99.90;;;;;;5012060;28;20147;-71
2023/01/28 08:09:34;;;;;;;9.52;6.03;;;1.30;99.90;;;;;;5032930;28;20048;-71
2023/01/28 08:12:06;;;;;;;11.35;6.47;;;1.30;99.90;;;;;;5039886;28;20045;-71
2023/01/28 08:14:32;;;;;;;11.52;7.05;;;1.30;99.90;;;;;;5033127;28;20052;-71
2023/01/28 08:16:58;;;;;;;10.82;6.68;;;1.30;99.90;;;;;;5018242;28;20394;-71
2023/01/28 08:19:24;;;;;;;11.88;7.15;;;1.30;99.90;;;;;;5030276;28;20049;-71
2023/01/28 08:21:50;;;;;;;11.85;7.63;;;1.40;99.90;;;;;;5034855;28;20041;-70
2023/01/28 08:24:16;;;;;;;13.40;7.03;;;1.40;99.90;;;;;;5013488;28;20106;-71
2023/01/28 08:26:42;;;;;;;10.23;6.82;;;1.60;99.90;;;;;;5019282;28;20036;-71
2023/01/28 08:29:08;;;;;;;11.85;6.82;;;1.40;99.90;;;;;;5029347;28;20069;-71
2023/01/28 08:31:34;;;;;;;10.60;6.95;;;1.80;99.90;;;;;;5036248;28;20045;-71
2023/01/28 08:34:00;;;;;;;11.60;7.05;;;1.90;99.90;;;;;;5038855;28;20033;-71
2023/01/28 08:36:25;;;;;;;11.57;7.65;;;1.70;99.90;;;;;;5031826;28;20574;-70
2023/01/28 08:38:53;;;;;;;12.02;7.25;;;1.60;99.90;;;;;;5043034;28;20179;-71
2023/01/28 08:41:21;;;;;;;12.93;7.18;;;1.60;99.90;;;;;;5029395;28;20049;-71
2023/01/28 08:43:47;;;;;;;11.30;7.18;;;1.60;99.90;;;;;;5030435;28;20080;-70
2023/01/28 08:46:13;;;;;;;10.35;6.60;;;1.90;99.90;;;;;;5028551;28;20048;-71
2023/01/28 08:48:38;;;;;;;11.80;6.70;;;1.80;99.90;;;;;;5034675;28;20063;-71
2023/01/28 08:51:05;;;;;;;12.93;7.18;;;2.20;99.90;;;;;;5030535;28;20051;-71
2023/01/28 08:53:30;;;;;;;10.05;6.53;;;1.70;99.90;;;;;;5036285;28;20103;-71
2023/01/28 08:55:56;;;;;;;9.63;6.55;;;1.60;99.90;;;;;;5019299;28;20041;-71
2023/01/28 08:58:22;;;;;;;10.32;6.18;;;1.70;99.90;;;;;;5018569;28;20906;-70
2023/01/28 09:00:48;;;;;;;10.05;5.80;;;1.70;99.90;;;;;;5036370;28;20037;-70
2023/01/28 09:03:15;;;;;;;11.95;6.50;;;1.70;99.90;;;;;;5016959;28;20034;-70
2023/01/28 09:05:41;;;;;;;9.98;6.22;;;1.70;99.90;;;;;;5018549;28;20455;-70
2023/01/28 09:08:13;;;;;;;10.35;6.63;;;1.80;99.90;;;;;;5030767;28;20048;-70
2023/01/28 09:10:40;;;;;;;10.38;6.57;;;1.80;99.90;;;;;;5029807;28;20120;-70
2023/01/28 09:13:11;;;;;;;10.80;6.55;;;1.80;99.90;;;;;;5047201;28;20063;-70
2023/01/28 09:15:37;;;;;;;;;;;2.50;99.90;;;;;;5033836;28;20079;-71
2023/01/28 09:18:04;;;;;;;9.55;6.30;;;1.90;99.90;;;;;;5019304;28;19928;-70
2023/01/28 09:20:31;;;;;;;9.85;6.65;;;1.90;99.90;;;;;;5039600;28;20079;-70
2023/01/28 09:22:58;;;;;;;9.52;6.07;;;1.90;99.90;;;;;;5037489;28;20041;-71
2023/01/28 09:25:24;;;;;;;10.63;6.60;;;1.90;99.90;;;;;;5036235;28;20488;-71
2023/01/28 09:27:50;;;;;;;8.48;5.82;;;2.00;99.90;;;;;;5039623;28;20056;-71
2023/01/28 09:30:16;;;;;;;11.80;6.47;;;2.00;99.90;;;;;;5051211;28;20044;-70
2023/01/28 09:32:41;;;;;;;11.10;6.72;;;2.00;99.90;;;;;;5031575;28;20037;-71
2023/01/28 09:35:07;;;;;;;11.15;6.72;;;2.00;99.90;;;;;;5053405;28;20064;-71
2023/01/28 09:37:34;;;;;;;10.35;6.68;;;2.10;99.90;;;;;;5035486;28;20044;-71
2023/01/28 09:40:00;;;;;;;9.93;6.47;;;2.10;99.90;;;;;;5057099;28;20043;-71
2023/01/28 09:42:54;;;;;;;11.15;6.88;;;2.20;99.90;;;;;;5052166;28;20045;-71
2023/01/28 09:45:37;;;;;;;12.27;7.10;;;2.20;99.90;;;;;;5021756;28;20059;-70
2023/01/28 09:48:05;;;;;;;10.23;6.47;;;2.30;99.90;;;;;;5035878;28;20049;-71
2023/01/28 09:50:37;;;;;;;13.00;6.68;;;2.30;99.90;;;;;;5031072;28;20453;-71
2023/01/28 09:53:20;;;;;;;16.08;7.25;;;2.30;99.90;;;;;;5056742;28;20044;-71
2023/01/28 09:55:50;;;;;;;9.73;6.13;;;2.40;99.90;;;;;;5037875;28;20054;-71
2023/01/28 09:58:17;;;;;;;11.85;6.18;;;2.50;99.90;;;;;;5028544;28;20049;-71
2023/01/28 10:01:01;;;;;;;11.48;6.68;;;2.50;99.90;;;;;;5034582;28;20039;-71
2023/01/28 10:03:27;;;;;;;10.27;6.47;;;2.50;99.90;;;;;;5047138;28;20047;-71
2023/01/28 10:06:02;;;;;;;11.60;6.88;;;2.60;99.90;;;;;;5029139;28;20036;-71
2023/01/28 10:08:56;;;;;;;11.60;6.50;;;2.70;99.90;;;;;;5011139;28;20086;-71
2023/01/28 10:11:52;;;;;;;9.93;6.10;;;2.80;99.90;;;;;;5024485;28;20123;-71
2023/01/28 10:14:36;;;;;;;9.60;5.68;;;2.80;99.90;;;;;;5027920;28;20060;-70
2023/01/28 10:17:33;;;;;;;8.98;5.55;;;2.90;99.90;;;;;;5048035;28;20143;-71
2023/01/28 10:20:14;;;;;;;11.80;6.38;;;3.00;99.90;;;;;;5028887;28;21298;-71
2023/01/28 10:22:43;;;;;;;12.77;6.60;;;3.00;99.90;;;;;;5031148;28;20085;-70
2023/01/28 10:25:19;;;;;;;11.30;6.75;;;3.10;99.90;;;;;;5049620;28;20048;-70
2023/01/28 10:27:47;;;;;;;11.40;6.43;;;3.20;99.90;;;;;;5033260;28;20051;-71
2023/01/28 10:30:16;;;;;;;12.50;6.32;;;3.30;99.90;;;;;;5050490;28;20346;-71
2023/01/28 10:32:50;;;;;;;11.38;6.40;;;3.30;99.90;;;;;;5032230;28;20754;-70
2023/01/28 10:35:16;;;;;;;13.43;7.38;;;3.30;99.90;;;;;;5048071;28;20047;-70
2023/01/28 10:37:41;;;;;;;10.15;6.40;;;3.30;99.90;;;;;;5021403;28;20442;-70
2023/01/28 10:40:17;;;;;;;11.80;7.65;;;3.30;99.90;;;;;;5021437;28;20302;-71
2023/01/28 10:42:44;;;;;;;12.15;6.90;;;3.30;99.90;;;;;;5024212;28;20432;-71
2023/01/28 10:45:33;;;;;;;14.05;7.13;;;3.30;99.90;;;;;;5038340;28;20769;-70
2023/01/28 10:48:28;;;;;;;10.90;7.07;;;3.30;99.90;;;;;;5030005;28;20068;-70
2023/01/28 10:51:01;;;;;;;12.48;7.43;;;3.40;99.90;;;;;;5014117;28;20113;-70
2023/01/28 10:53:39;;;;;;;13.43;7.63;;;3.40;99.90;;;;;;5031565;28;20152;-70
2023/01/28 10:56:14;;;;;;;11.15;6.95;;;3.40;99.90;;;;;;5030398;28;20047;-71
2023/01/28 10:58:59;;;;;;;11.98;7.00;;;3.50;99.90;;;;;;5043354;28;20134;-70
2023/01/28 11:01:38;;;;;;;12.68;7.45;;;3.50;99.90;;;;;;5019292;28;20037;-70
2023/01/28 11:04:05;;;;;;;13.02;7.15;;;3.60;99.90;;;;;;5020753;28;20052;-70
2023/01/28 11:06:31;;;;;;;11.68;7.35;;;3.80;99.90;;;;;;5035659;28;20102;-71
2023/01/28 11:08:56;;;;;;;10.07;6.93;;;3.60;99.90;;;;;;5018439;28;20040;-74
2023/01/28 11:11:26;;;;;;;10.60;6.47;;;3.90;99.90;;;;;;5018199;28;20041;-73
2023/01/28 11:13:54;;;;;;;11.35;6.95;;;3.70;99.90;;;;;;5045001;28;20059;-73
2023/01/28 11:16:21;;;;;;;11.50;6.63;;;3.70;99.90;;;;;;5039209;28;20067;-74
2023/01/28 11:18:52;;;;;;;9.80;6.75;;;3.70;99.90;;;;;;5026461;28;20398;-73
2023/01/28 11:21:24;;;;;;;11.65;6.80;;;3.70;99.90;;;;;;5059577;28;20043;-73
2023/01/28 11:23:56;;;;;;;14.52;6.82;;;3.60;99.90;;;;;;5040310;28;20099;-74
2023/01/28 11:26:35;;;;;;;12.02;6.93;;;3.70;99.90;;;;;;5037611;28;20056;-74
2023/01/28 11:29:00;;;;;;;10.90;6.65;;;3.90;99.90;;;;;;5046227;28;20413;-74
2023/01/28 11:31:27;;;;;;;11.20;7.03;;;3.70;99.90;;;;;;5041665;28;20048;-74
2023/01/28 11:33:56;;;;;;;10.57;6.40;;;3.70;99.90;;;;;;5034893;28;20463;-73
2023/01/28 11:36:24;;;;;;;12.85;6.57;;;3.70;99.90;;;;;;5039812;28;20076;-73
2023/01/28 11:39:01;;;;;;;12.73;6.70;;;3.70;99.90;;;;;;5025520;28;20044;-71
2023/01/28 11:41:32;;;;;;;12.05;6.95;;;3.80;99.90;;;;;;5025245;28;20406;-71
2023/01/28 11:44:19;;;;;;;10.50;6.50;;;3.80;99.90;;;;;;5038422;28;20037;-70
2023/01/28 11:47:15;;;;;;;13.18;6.55;;;3.80;99.90;;;;;;5052685;28;20308;-70
2023/01/28 11:50:21;;;;;;;10.73;6.35;;;3.80;99.90;;;;;;5032621;28;20052;-71
2023/01/28 11:53:05;;;;;;;11.68;6.55;;;3.80;99.90;;;;;;5032992;28;20146;-70
2023/01/28 11:56:04;;;;;;;10.68;6.18;;;3.80;99.90;;;;;;5054167;28;20041;-70
2023/01/28 11:59:02;;;;;;;12.05;7.43;;;3.90;99.90;;;;;;5057903;28;20045;-69
2023/01/28 12:01:34;;;;;;;12.10;6.88;;;3.90;99.90;;;;;;5037540;28;20186;-69
2023/01/28 12:04:24;;;;;;;14.18;6.50;;;3.90;99.90;;;;;;5064602;28;20288;-70
2023/01/28 12:07:14;;;;;;;11.45;7.05;;;3.90;99.90;;;;;;5043899;28;20421;-70
2023/01/28 12:09:57;;;;;;;13.15;7.20;;;3.90;99.90;;;;;;5027327;28;20041;-70
2023/01/28 12:12:50;;;;;;;15.10;7.13;;;3.90;99.90;;;;;;5038159;28;20048;-70
2023/01/28 12:15:25;;;;;;;13.88;7.20;;;3.90;99.90;;;;;;5027143;28;20063;-70
2023/01/28 12:18:20;;;;;;;11.70;6.97;;;3.90;99.90;;;;;;5031803;28;20041;-70
2023/01/28 12:21:09;;;;;;;12.10;6.97;;;3.90;99.90;;;;;;5033731;28;20635;-70
2023/01/28 12:23:50;;;;;;;11.43;6.55;;;3.90;99.90;;;;;;5037102;28;20433;-70
2023/01/28 12:26:30;;;;;;;11.00;6.77;;;3.90;99.90;;;;;;5036598;28;20854;-70
2023/01/28 12:29:28;;;;;;;11.82;6.55;;;3.90;99.90;;;;;;5035936;28;20048;-70
2023/01/28 12:32:07;;;;;;;14.80;7.10;;;3.90;99.90;;;;;;5028374;28;20308;-70
2023/01/28 12:34:47;;;;;;;11.10;6.97;;;4.00;99.90;;;;;;5032846;28;20037;-70
2023/01/28 12:37:46;;;;;;;11.60;6.40;;;4.00;99.90;;;;;;5032233;28;20494;-69
2023/01/28 12:40:12;;;;;;;11.63;6.90;;;4.10;99.90;;;;;;5012808;28;20084;-70
2023/01/28 12:42:50;;;;;;;12.88;7.60;;;4.10;99.90;;;;;;5041129;28;20075;-71
2023/01/28 12:45:30;;;;;;;11.32;7.20;;;4.20;99.90;;;;;;5024402;28;20472;-70
2023/01/28 12:48:10;;;;;;;12.20;6.93;;;4.20;99.90;;;;;;5039517;28;20495;-70
2023/01/28 12:50:45;;;;;;;12.30;7.07;;;4.20;99.90;;;;;;5036119;28;20116;-70
2023/01/28 12:53:46;;;;;;;13.35;6.88;;;4.30;99.90;;;;;;5039650;28;20086;-70
2023/01/28 12:56:18;;;;;;;11.80;6.57;;;4.30;99.90;;;;;;5057861;28;20068;-70
2023/01/28 12:58:44;;;;;;;12.00;7.18;;;4.40;99.90;;;;;;5040594;28;20051;-70
2023/01/28 13:01:20;;;;;;;13.93;7.15;;;4.40;99.90;;;;;;5058592;28;20409;-70
2023/01/28 13:03:54;;;;;;;12.25;6.78;;;4.40;99.90;;;;;;5054857;28;20049;-70
2023/01/28 13:06:29;;;;;;;11.93;6.80;;;4.40;99.90;;;;;;5031063;28;20049;-69
2023/01/28 13:09:09;;;;;;;10.90;6.18;;;4.40;99.90;;;;;;5050356;28;20292;-70
2023/01/28 13:11:36;;;;;;;11.85;6.70;;;4.40;99.90;;;;;;5032862;28;20413;-74
2023/01/28 13:14:04;;;;;;;12.30;6.45;;;4.40;99.90;;;;;;5054817;28;20057;-70
2023/01/28 13:16:30;;;;;;;11.50;6.68;;;4.40;99.90;;;;;;5017313;28;20124;-70
2023/01/28 13:19:24;;;;;;;13.32;7.00;;;4.40;99.90;;;;;;5035099;28;20533;-70
2023/01/28 13:21:51;;;;;;;13.45;7.03;;;4.50;99.90;;;;;;5044504;28;20059;-70
2023/01/28 13:24:19;;;;;;;13.85;7.15;;;4.50;99.90;;;;;;5036936;28;20063;-70
2023/01/28 13:26:46;;;;;;;11.88;6.80;;;4.50;99.90;;;;;;5055030;28;20371;-70
2023/01/28 13:29:21;;;;;;;13.52;7.20;;;4.60;99.90;;;;;;5035862;28;20101;-70
2023/01/28 13:31:49;;;;;;;12.30;6.63;;;4.60;99.90;;;;;;5035070;28;20045;-70
2023/01/28 13:34:36;;;;;;;10.45;6.40;;;4.60;99.90;;;;;;5035149;28;20562;-70
2023/01/28 13:37:22;;;;;;;11.70;6.55;;;4.70;99.90;;;;;;5035001;28;20049;-70